SKRH/RCH METAR and TAF weather

Enter ICAO airport designator
Station Type Date Time Source
SKRH METAR 2019/07/17 12:00 UTC NOAA

SKRH 171200Z 10014KT 9999 SCT020 BKN100 28/23 A2989


Station Type Date Time Source
SKRH Decoded METAR 2019/07/17 12:00 UTC NOAA

Riohacha / Almirante Padilla, Colombia (SKRH) 11-32N 072-56W 4M
Jul 17, 2019 - 08:00 AM EDT / 2019.07.17 1200 UTC
Wind: from the E (100 degrees) at 16 MPH (14 KT):0
Visibility: greater than 7 mile(s):0
Sky conditions: mostly cloudy
Temperature: 82 F (28 C)
Dew Point: 73 F (23 C)
Relative Humidity: 74%
Pressure (altimeter): 29.89 in. Hg (1012 hPa)
ob: SKRH 171200Z 10014KT 9999 SCT020 BKN100 28/23 A2989
cycle: 12

Station Type Date Time Source
SKRH TAF 2015/07/31 18:51 UTC NOAA

TAF SKRH 311700Z 3118/0118 07010KT 9999 SCT017
TEMPO 3120/0103 09015KT CAVOK
TEMPO 0109/0114 9000 BKN015 TX36/3118Z TN28/0110Z

Example: see airport list